sensor_id;sensor_type;location;lat;lon;timestamp;pressure;altitude;pressure_sealevel;temperature
84354;BMP280;74538;43.522;1.516;2023-12-28T00:01:16;100607.19;;;17.30
84354;BMP280;74538;43.522;1.516;2023-12-28T00:03:42;100614.47;;;17.29
84354;BMP280;74538;43.522;1.516;2023-12-28T00:06:07;100612.94;;;17.28
84354;BMP280;74538;43.522;1.516;2023-12-28T00:08:33;100594.63;;;17.27
84354;BMP280;74538;43.522;1.516;2023-12-28T00:10:58;100587.75;;;17.26
84354;BMP280;74538;43.522;1.516;2023-12-28T00:13:24;100588.50;;;17.26
84354;BMP280;74538;43.522;1.516;2023-12-28T00:15:49;100587.00;;;17.25
84354;BMP280;74538;43.522;1.516;2023-12-28T00:18:14;100584.31;;;17.25
84354;BMP280;74538;43.522;1.516;2023-12-28T00:20:40;100579.38;;;17.24
84354;BMP280;74538;43.522;1.516;2023-12-28T00:23:05;100574.78;;;17.24
84354;BMP280;74538;43.522;1.516;2023-12-28T00:25:31;100566.72;;;17.24
84354;BMP280;74538;43.522;1.516;2023-12-28T00:27:57;100564.47;;;17.23
84354;BMP280;74538;43.522;1.516;2023-12-28T00:30:22;100565.63;;;17.22
84354;BMP280;74538;43.522;1.516;2023-12-28T00:32:48;100570.25;;;17.21
84354;BMP280;74538;43.522;1.516;2023-12-28T00:35:13;100568.00;;;17.20
84354;BMP280;74538;43.522;1.516;2023-12-28T00:37:39;100576.78;;;17.20
84354;BMP280;74538;43.522;1.516;2023-12-28T00:40:05;100593.63;;;17.21
84354;BMP280;74538;43.522;1.516;2023-12-28T00:42:30;100591.31;;;17.19
84354;BMP280;74538;43.522;1.516;2023-12-28T00:44:56;100594.00;;;17.19
84354;BMP280;74538;43.522;1.516;2023-12-28T00:47:21;100586.38;;;17.17
84354;BMP280;74538;43.522;1.516;2023-12-28T00:49:47;100588.28;;;17.17
84354;BMP280;74538;43.522;1.516;2023-12-28T00:52:12;100589.50;;;17.16
84354;BMP280;74538;43.522;1.516;2023-12-28T00:54:37;100586.06;;;17.15
84354;BMP280;74538;43.522;1.516;2023-12-28T00:57:04;100591.41;;;17.15
84354;BMP280;74538;43.522;1.516;2023-12-28T00:59:29;100579.94;;;17.15
84354;BMP280;74538;43.522;1.516;2023-12-28T01:01:56;100583.78;;;17.14
84354;BMP280;74538;43.522;1.516;2023-12-28T01:04:21;100575.75;;;17.14
84354;BMP280;74538;43.522;1.516;2023-12-28T01:06:49;100571.56;;;17.13
84354;BMP280;74538;43.522;1.516;2023-12-28T01:09:15;100567.38;;;17.12
84354;BMP280;74538;43.522;1.516;2023-12-28T01:11:40;100566.59;;;17.11
84354;BMP280;74538;43.522;1.516;2023-12-28T01:14:06;100568.13;;;17.12
84354;BMP280;74538;43.522;1.516;2023-12-28T01:16:31;100571.22;;;17.11
84354;BMP280;74538;43.522;1.516;2023-12-28T01:18:57;100570.47;;;17.10
84354;BMP280;74538;43.522;1.516;2023-12-28T01:21:22;100588.47;;;17.10
84354;BMP280;74538;43.522;1.516;2023-12-28T01:23:50;100596.16;;;17.08
84354;BMP280;74538;43.522;1.516;2023-12-28T01:26:15;100599.56;;;17.08
84354;BMP280;74538;43.522;1.516;2023-12-28T01:28:42;100600.75;;;17.07
84354;BMP280;74538;43.522;1.516;2023-12-28T01:31:08;100612.66;;;17.06
84354;BMP280;74538;43.522;1.516;2023-12-28T01:33:33;100609.97;;;17.06
84354;BMP280;74538;43.522;1.516;2023-12-28T01:35:59;100608.00;;;17.07
84354;BMP280;74538;43.522;1.516;2023-12-28T01:38:24;100610.38;;;17.05
84354;BMP280;74538;43.522;1.516;2023-12-28T01:40:50;100604.25;;;17.04
84354;BMP280;74538;43.522;1.516;2023-12-28T01:43:15;100605.03;;;17.05
84354;BMP280;74538;43.522;1.516;2023-12-28T01:45:41;100610.00;;;17.03
84354;BMP280;74538;43.522;1.516;2023-12-28T01:48:06;100601.97;;;17.03
84354;BMP280;74538;43.522;1.516;2023-12-28T01:50:32;100597.78;;;17.02
84354;BMP280;74538;43.522;1.516;2023-12-28T01:53:00;100595.09;;;17.02
84354;BMP280;74538;43.522;1.516;2023-12-28T01:55:26;100597.06;;;17.01
84354;BMP280;74538;43.522;1.516;2023-12-28T01:57:54;100600.47;;;17.02
84354;BMP280;74538;43.522;1.516;2023-12-28T02:00:21;100598.22;;;17.00
84354;BMP280;74538;43.522;1.516;2023-12-28T02:02:48;100594.78;;;17.00
84354;BMP280;74538;43.522;1.516;2023-12-28T02:05:13;100592.13;;;17.00
84354;BMP280;74538;43.522;1.516;2023-12-28T02:07:39;100590.59;;;16.99
84354;BMP280;74538;43.522;1.516;2023-12-28T02:10:05;100584.50;;;16.98
84354;BMP280;74538;43.522;1.516;2023-12-28T02:12:31;100582.19;;;16.97
84354;BMP280;74538;43.522;1.516;2023-12-28T02:14:57;100582.19;;;16.97
84354;BMP280;74538;43.522;1.516;2023-12-28T02:17:30;100586.78;;;16.96
84354;BMP280;74538;43.522;1.516;2023-12-28T02:19:57;100590.66;;;16.95
84354;BMP280;74538;43.522;1.516;2023-12-28T02:22:25;100589.91;;;16.95
84354;BMP280;74538;43.522;1.516;2023-12-28T02:27:36;100599.09;;;16.94
84354;BMP280;74538;43.522;1.516;2023-12-28T02:30:03;100592.25;;;16.93
84354;BMP280;74538;43.522;1.516;2023-12-28T02:32:43;100607.13;;;16.94
84354;BMP280;74538;43.522;1.516;2023-12-28T02:35:31;100613.66;;;16.93
84354;BMP280;74538;43.522;1.516;2023-12-28T02:38:07;100601.44;;;16.92
84354;BMP280;74538;43.522;1.516;2023-12-28T02:40:41;100598.00;;;16.91
84354;BMP280;74538;43.522;1.516;2023-12-28T02:43:09;100598.44;;;16.90
84354;BMP280;74538;43.522;1.516;2023-12-28T02:45:35;100604.19;;;16.88
84354;BMP280;74538;43.522;1.516;2023-12-28T02:48:01;100599.56;;;16.89
84354;BMP280;74538;43.522;1.516;2023-12-28T02:50:26;100590.03;;;16.88
84354;BMP280;74538;43.522;1.516;2023-12-28T02:52:52;100591.19;;;16.87
84354;BMP280;74538;43.522;1.516;2023-12-28T02:55:17;100585.84;;;16.87
84354;BMP280;74538;43.522;1.516;2023-12-28T02:57:44;100577.06;;;16.86
84354;BMP280;74538;43.522;1.516;2023-12-28T03:00:10;100571.00;;;16.86
84354;BMP280;74538;43.522;1.516;2023-12-28T03:02:37;100581.69;;;16.86
84354;BMP280;74538;43.522;1.516;2023-12-28T03:05:06;100563.38;;;16.84
84354;BMP280;74538;43.522;1.516;2023-12-28T03:07:32;100559.94;;;16.84
84354;BMP280;74538;43.522;1.516;2023-12-28T03:09:58;100557.25;;;16.84
84354;BMP280;74538;43.522;1.516;2023-12-28T03:12:24;100553.81;;;16.83
84354;BMP280;74538;43.522;1.516;2023-12-28T03:14:49;100550.41;;;16.83
84354;BMP280;74538;43.522;1.516;2023-12-28T03:17:15;100551.53;;;16.81
84354;BMP280;74538;43.522;1.516;2023-12-28T03:19:40;100552.72;;;16.80
84354;BMP280;74538;43.522;1.516;2023-12-28T03:22:06;100547.38;;;16.80
84354;BMP280;74538;43.522;1.516;2023-12-28T03:24:31;100558.06;;;16.80
84354;BMP280;74538;43.522;1.516;2023-12-28T03:26:57;100558.06;;;16.80
84354;BMP280;74538;43.522;1.516;2023-12-28T03:29:23;100550.47;;;16.79
84354;BMP280;74538;43.522;1.516;2023-12-28T03:31:48;100541.69;;;16.78
84354;BMP280;74538;43.522;1.516;2023-12-28T03:34:14;100542.84;;;16.77
84354;BMP280;74538;43.522;1.516;2023-12-28T03:36:40;100542.84;;;16.77
84354;BMP280;74538;43.522;1.516;2023-12-28T03:39:05;100554.72;;;16.76
84354;BMP280;74538;43.522;1.516;2023-12-28T03:41:31;100557.38;;;16.76
84354;BMP280;74538;43.522;1.516;2023-12-28T03:43:57;100555.91;;;16.75
84354;BMP280;74538;43.522;1.516;2023-12-28T03:46:22;100547.88;;;16.75
84354;BMP280;74538;43.522;1.516;2023-12-28T03:48:48;100537.56;;;16.74
84354;BMP280;74538;43.522;1.516;2023-12-28T03:51:14;100538.34;;;16.74
84354;BMP280;74538;43.522;1.516;2023-12-28T03:53:40;100532.19;;;16.74
84354;BMP280;74538;43.522;1.516;2023-12-28T03:56:06;100535.28;;;16.72
84354;BMP280;74538;43.522;1.516;2023-12-28T03:58:31;100544.06;;;16.73
84354;BMP280;74538;43.522;1.516;2023-12-28T04:00:57;100547.91;;;16.72
84354;BMP280;74538;43.522;1.516;2023-12-28T04:03:22;100547.16;;;16.71
84354;BMP280;74538;43.522;1.516;2023-12-28T04:05:47;100537.66;;;16.70
84354;BMP280;74538;43.522;1.516;2023-12-28T04:08:13;100537.66;;;16.70
84354;BMP280;74538;43.522;1.516;2023-12-28T04:10:38;100541.50;;;16.69
84354;BMP280;74538;43.522;1.516;2023-12-28T04:13:04;100539.56;;;16.70
84354;BMP280;74538;43.522;1.516;2023-12-28T04:15:30;100537.31;;;16.68
84354;BMP280;74538;43.522;1.516;2023-12-28T04:17:56;100543.81;;;16.67
84354;BMP280;74538;43.522;1.516;2023-12-28T04:20:22;100548.00;;;16.68
84354;BMP280;74538;43.522;1.516;2023-12-28T04:22:47;100559.88;;;16.67
84354;BMP280;74538;43.522;1.516;2023-12-28T04:25:13;100547.63;;;16.66
84354;BMP280;74538;43.522;1.516;2023-12-28T04:27:39;100543.47;;;16.65
84354;BMP280;74538;43.522;1.516;2023-12-28T04:30:05;100527.81;;;16.64
84354;BMP280;74538;43.522;1.516;2023-12-28T04:32:32;100520.56;;;16.64
84354;BMP280;74538;43.522;1.516;2023-12-28T04:34:57;100517.13;;;16.64
84354;BMP280;74538;43.522;1.516;2023-12-28T04:37:23;100518.28;;;16.63
84354;BMP280;74538;43.522;1.516;2023-12-28T04:39:48;100512.19;;;16.62
84354;BMP280;74538;43.522;1.516;2023-12-28T04:42:14;100518.69;;;16.61
84354;BMP280;74538;43.522;1.516;2023-12-28T04:44:39;100509.19;;;16.60
84354;BMP280;74538;43.522;1.516;2023-12-28T04:47:05;100510.34;;;16.59
84354;BMP280;74538;43.522;1.516;2023-12-28T04:49:30;100511.13;;;16.60
84354;BMP280;74538;43.522;1.516;2023-12-28T04:51:56;100488.97;;;16.59
84354;BMP280;74538;43.522;1.516;2023-12-28T04:54:22;100505.38;;;16.58
84354;BMP280;74538;43.522;1.516;2023-12-28T04:56:48;100506.56;;;16.57
84354;BMP280;74538;43.522;1.516;2023-12-28T04:59:13;100507.31;;;16.57
84354;BMP280;74538;43.522;1.516;2023-12-28T05:01:43;100506.56;;;16.57
84354;BMP280;74538;43.522;1.516;2023-12-28T05:04:08;100511.16;;;16.56
84354;BMP280;74538;43.522;1.516;2023-12-28T05:06:34;100507.72;;;16.56
84354;BMP280;74538;43.522;1.516;2023-12-28T05:08:59;100508.91;;;16.55
84354;BMP280;74538;43.522;1.516;2023-12-28T05:11:25;100513.50;;;16.54
84354;BMP280;74538;43.522;1.516;2023-12-28T05:13:50;100524.19;;;16.54
84354;BMP280;74538;43.522;1.516;2023-12-28T05:16:16;100522.69;;;16.53
84354;BMP280;74538;43.522;1.516;2023-12-28T05:18:41;100532.63;;;16.53
84354;BMP280;74538;43.522;1.516;2023-12-28T05:21:07;100536.06;;;16.53
84354;BMP280;74538;43.522;1.516;2023-12-28T05:23:33;100529.97;;;16.53
84354;BMP280;74538;43.522;1.516;2023-12-28T05:25:58;100521.94;;;16.53
84354;BMP280;74538;43.522;1.516;2023-12-28T05:28:23;100520.03;;;16.53
84354;BMP280;74538;43.522;1.516;2023-12-28T05:30:49;100524.63;;;16.53
84354;BMP280;74538;43.522;1.516;2023-12-28T05:33:14;100520.41;;;16.52
84354;BMP280;74538;43.522;1.516;2023-12-28T05:35:40;100517.72;;;16.52
84354;BMP280;74538;43.522;1.516;2023-12-28T05:38:05;100504.34;;;16.52
84354;BMP280;74538;43.522;1.516;2023-12-28T05:40:31;100499.00;;;16.52
84354;BMP280;74538;43.522;1.516;2023-12-28T05:42:56;100500.91;;;16.51
84354;BMP280;74538;43.522;1.516;2023-12-28T05:45:21;100499.78;;;16.52
84354;BMP280;74538;43.522;1.516;2023-12-28T05:47:47;100511.63;;;16.51
84354;BMP280;74538;43.522;1.516;2023-12-28T05:50:13;100506.28;;;16.51
84354;BMP280;74538;43.522;1.516;2023-12-28T05:52:38;100513.53;;;16.51
84354;BMP280;74538;43.522;1.516;2023-12-28T05:55:04;100516.97;;;16.51
84354;BMP280;74538;43.522;1.516;2023-12-28T05:57:30;100510.88;;;16.51
84354;BMP280;74538;43.522;1.516;2023-12-28T05:59:59;100510.09;;;16.50
84354;BMP280;74538;43.522;1.516;2023-12-28T06:02:24;100515.06;;;16.52
84354;BMP280;74538;43.522;1.516;2023-12-28T06:04:50;100516.22;;;16.51
84354;BMP280;74538;43.522;1.516;2023-12-28T06:07:15;100526.16;;;16.50
84354;BMP280;74538;43.522;1.516;2023-12-28T06:09:41;100529.59;;;16.51
84354;BMP280;74538;43.522;1.516;2023-12-28T06:12:06;100534.19;;;16.50
84354;BMP280;74538;43.522;1.516;2023-12-28T06:14:32;100532.69;;;16.49
84354;BMP280;74538;43.522;1.516;2023-12-28T06:16:57;100544.16;;;16.50
84354;BMP280;74538;43.522;1.516;2023-12-28T06:19:23;100538.81;;;16.50
84354;BMP280;74538;43.522;1.516;2023-12-28T06:21:48;100543.41;;;16.49
84354;BMP280;74538;43.522;1.516;2023-12-28T06:24:14;100547.22;;;16.48
84354;BMP280;74538;43.522;1.516;2023-12-28T06:26:41;100543.41;;;16.49
84354;BMP280;74538;43.522;1.516;2023-12-28T06:29:06;100552.91;;;16.50
84354;BMP280;74538;43.522;1.516;2023-12-28T06:31:32;100550.22;;;16.50
84354;BMP280;74538;43.522;1.516;2023-12-28T06:34:01;100547.22;;;16.48
84354;BMP280;74538;43.522;1.516;2023-12-28T06:36:27;100554.09;;;16.49
84354;BMP280;74538;43.522;1.516;2023-12-28T06:38:52;100560.19;;;16.50
84354;BMP280;74538;43.522;1.516;2023-12-28T06:41:17;100562.13;;;16.49
84354;BMP280;74538;43.522;1.516;2023-12-28T06:43:43;100550.66;;;16.49
84354;BMP280;74538;43.522;1.516;2023-12-28T06:46:08;100545.31;;;16.49
84354;BMP280;74538;43.522;1.516;2023-12-28T06:48:34;100548.75;;;16.49
84354;BMP280;74538;43.522;1.516;2023-12-28T06:50:59;100540.72;;;16.49
84354;BMP280;74538;43.522;1.516;2023-12-28T06:53:25;100544.88;;;16.50
84354;BMP280;74538;43.522;1.516;2023-12-28T06:55:50;100543.41;;;16.49
84354;BMP280;74538;43.522;1.516;2023-12-28T06:58:15;100529.28;;;16.49
84354;BMP280;74538;43.522;1.516;2023-12-28T07:00:41;100525.84;;;16.48
84354;BMP280;74538;43.522;1.516;2023-12-28T07:03:09;100528.09;;;16.50
84354;BMP280;74538;43.522;1.516;2023-12-28T07:05:34;100524.25;;;16.51
84354;BMP280;74538;43.522;1.516;2023-12-28T07:08:01;100523.84;;;16.52
84354;BMP280;74538;43.522;1.516;2023-12-28T07:10:26;100520.34;;;16.55
84354;BMP280;74538;43.522;1.516;2023-12-28T07:12:51;100523.72;;;16.59
84354;BMP280;74538;43.522;1.516;2023-12-28T07:15:17;100525.56;;;16.62
84354;BMP280;74538;43.522;1.516;2023-12-28T07:17:42;100531.56;;;16.66
84354;BMP280;74538;43.522;1.516;2023-12-28T07:20:08;100530.03;;;16.69
84354;BMP280;74538;43.522;1.516;2023-12-28T07:22:37;100534.53;;;16.72
84354;BMP280;74538;43.522;1.516;2023-12-28T07:25:05;100537.91;;;16.76
84354;BMP280;74538;43.522;1.516;2023-12-28T07:27:30;100534.41;;;16.79
84354;BMP280;74538;43.522;1.516;2023-12-28T07:29:56;100523.63;;;16.83
84354;BMP280;74538;43.522;1.516;2023-12-28T07:32:21;100523.97;;;16.85
84354;BMP280;74538;43.522;1.516;2023-12-28T07:34:51;100528.47;;;16.88
84354;BMP280;74538;43.522;1.516;2023-12-28T07:37:17;100530.38;;;16.91
84354;BMP280;74538;43.522;1.516;2023-12-28T07:39:42;100529.50;;;16.94
84354;BMP280;74538;43.522;1.516;2023-12-28T07:42:08;100525.22;;;16.96
84354;BMP280;74538;43.522;1.516;2023-12-28T07:44:33;100532.47;;;16.99
84354;BMP280;74538;43.522;1.516;2023-12-28T07:46:59;100535.06;;;17.03
84354;BMP280;74538;43.522;1.516;2023-12-28T07:49:24;100540.78;;;17.05
84354;BMP280;74538;43.522;1.516;2023-12-28T07:51:50;100520.44;;;17.07
84354;BMP280;74538;43.522;1.516;2023-12-28T07:54:16;100533.75;;;17.11
84354;BMP280;74538;43.522;1.516;2023-12-28T07:56:41;100531.41;;;17.13
84354;BMP280;74538;43.522;1.516;2023-12-28T07:59:07;100542.78;;;17.17
84354;BMP280;74538;43.522;1.516;2023-12-28T08:01:34;100540.44;;;17.19
84354;BMP280;74538;43.522;1.516;2023-12-28T08:04:00;100548.84;;;17.21
84354;BMP280;74538;43.522;1.516;2023-12-28T08:06:26;100550.66;;;17.24
84354;BMP280;74538;43.522;1.516;2023-12-28T08:08:52;100560.56;;;17.27
84354;BMP280;74538;43.522;1.516;2023-12-28T08:11:19;100555.53;;;17.29
84354;BMP280;74538;43.522;1.516;2023-12-28T08:13:44;100550.53;;;17.31
84354;BMP280;74538;43.522;1.516;2023-12-28T08:16:10;100547.00;;;17.34
84354;BMP280;74538;43.522;1.516;2023-12-28T08:18:35;100555.41;;;17.36
84354;BMP280;74538;43.522;1.516;2023-12-28T08:21:01;100552.63;;;17.40
84354;BMP280;74538;43.522;1.516;2023-12-28T08:23:26;100546.84;;;17.41
84354;BMP280;74538;43.522;1.516;2023-12-28T08:25:51;100544.50;;;17.43
84354;BMP280;74538;43.522;1.516;2023-12-28T08:28:17;100554.38;;;17.46
84354;BMP280;74538;43.522;1.516;2023-12-28T08:30:42;100546.66;;;17.48
84354;BMP280;74538;43.522;1.516;2023-12-28T08:33:08;100545.13;;;17.51
84354;BMP280;74538;43.522;1.516;2023-12-28T08:35:33;100543.50;;;17.54
84354;BMP280;74538;43.522;1.516;2023-12-28T08:37:59;100542.31;;;17.55
84354;BMP280;74538;43.522;1.516;2023-12-28T08:40:24;100564.84;;;17.57
84354;BMP280;74538;43.522;1.516;2023-12-28T08:42:51;100564.78;;;17.61
84354;BMP280;74538;43.522;1.516;2023-12-28T08:45:16;100566.25;;;17.62
84354;BMP280;74538;43.522;1.516;2023-12-28T08:47:41;100568.16;;;17.65
84354;BMP280;74538;43.522;1.516;2023-12-28T08:50:07;100572.66;;;17.68
84354;BMP280;74538;43.522;1.516;2023-12-28T08:52:33;100572.97;;;17.70
84354;BMP280;74538;43.522;1.516;2023-12-28T08:54:58;100570.63;;;17.72
84354;BMP280;74538;43.522;1.516;2023-12-28T08:57:25;100580.53;;;17.75
84354;BMP280;74538;43.522;1.516;2023-12-28T08:59:51;100584.69;;;17.76
84354;BMP280;74538;43.522;1.516;2023-12-28T09:02:16;100588.47;;;17.78
84354;BMP280;74538;43.522;1.516;2023-12-28T09:04:42;100594.91;;;17.81
84354;BMP280;74538;43.522;1.516;2023-12-28T09:07:07;100603.31;;;17.83
84354;BMP280;74538;43.522;1.516;2023-12-28T09:09:33;100595.59;;;17.85
84354;BMP280;74538;43.522;1.516;2023-12-28T09:11:58;100590.53;;;17.87
84354;BMP280;74538;43.522;1.516;2023-12-28T09:14:24;100593.59;;;17.89
84354;BMP280;74538;43.522;1.516;2023-12-28T09:16:49;100590.81;;;17.93
84354;BMP280;74538;43.522;1.516;2023-12-28T09:19:14;100596.94;;;17.93
84354;BMP280;74538;43.522;1.516;2023-12-28T09:21:40;100589.97;;;17.96
84354;BMP280;74538;43.522;1.516;2023-12-28T09:24:06;100593.75;;;17.98
84354;BMP280;74538;43.522;1.516;2023-12-28T09:26:33;100591.38;;;18.00
84354;BMP280;74538;43.522;1.516;2023-12-28T09:28:58;100600.53;;;18.03
84354;BMP280;74538;43.522;1.516;2023-12-28T09:31:24;100614.28;;;18.05
84354;BMP280;74538;43.522;1.516;2023-12-28T09:33:50;100605.78;;;18.06
84354;BMP280;74538;43.522;1.516;2023-12-28T09:36:15;100614.19;;;18.08
84354;BMP280;74538;43.522;1.516;2023-12-28T09:38:42;100614.53;;;18.10
84354;BMP280;74538;43.522;1.516;2023-12-28T09:41:14;100614.84;;;18.12
84354;BMP280;74538;43.522;1.516;2023-12-28T09:44:09;100612.81;;;18.16
84354;BMP280;74538;43.522;1.516;2023-12-28T09:46:36;100614.34;;;18.17
84354;BMP280;74538;43.522;1.516;2023-12-28T09:49:02;100616.19;;;18.20
84354;BMP280;74538;43.522;1.516;2023-12-28T09:51:27;100617.69;;;18.21
84354;BMP280;74538;43.522;1.516;2023-12-28T09:53:53;100624.13;;;18.24
84354;BMP280;74538;43.522;1.516;2023-12-28T09:56:19;100604.53;;;18.27
84354;BMP280;74538;43.522;1.516;2023-12-28T09:58:46;100612.16;;;18.29
84354;BMP280;74538;43.522;1.516;2023-12-28T10:01:14;100608.28;;;18.30
84354;BMP280;74538;43.522;1.516;2023-12-28T10:03:40;100612.81;;;18.33
84354;BMP280;74538;43.522;1.516;2023-12-28T10:06:05;100613.13;;;18.35
84354;BMP280;74538;43.522;1.516;2023-12-28T10:08:30;100612.72;;;18.36
84354;BMP280;74538;43.522;1.516;2023-12-28T10:10:56;100602.28;;;18.38
84354;BMP280;74538;43.522;1.516;2023-12-28T10:13:24;100612.59;;;18.40
84354;BMP280;74538;43.522;1.516;2023-12-28T10:15:50;100603.75;;;18.43
84354;BMP280;74538;43.522;1.516;2023-12-28T10:18:18;100614.03;;;18.44
84354;BMP280;74538;43.522;1.516;2023-12-28T10:20:51;100610.94;;;18.46
84354;BMP280;74538;43.522;1.516;2023-12-28T10:23:18;100601.28;;;18.48
84354;BMP280;74538;43.522;1.516;2023-12-28T10:25:43;100602.38;;;18.51
84354;BMP280;74538;43.522;1.516;2023-12-28T10:28:10;100593.16;;;18.52
84354;BMP280;74538;43.522;1.516;2023-12-28T10:30:38;100596.88;;;18.54
84354;BMP280;74538;43.522;1.516;2023-12-28T10:33:07;100600.66;;;18.57
84354;BMP280;74538;43.522;1.516;2023-12-28T10:35:32;100594.13;;;18.58
84354;BMP280;74538;43.522;1.516;2023-12-28T10:38:00;100594.44;;;18.60
84354;BMP280;74538;43.522;1.516;2023-12-28T10:40:26;100602.81;;;18.62
84354;BMP280;74538;43.522;1.516;2023-12-28T10:42:57;100608.53;;;18.64
84354;BMP280;74538;43.522;1.516;2023-12-28T10:45:28;100598.84;;;18.67
84354;BMP280;74538;43.522;1.516;2023-12-28T10:48:04;100595.75;;;18.68
84354;BMP280;74538;43.522;1.516;2023-12-28T10:50:57;100598.81;;;18.70
84354;BMP280;74538;43.522;1.516;2023-12-28T10:56:43;100590.16;;;18.75
84354;BMP280;74538;43.522;1.516;2023-12-28T11:02:14;100586.69;;;18.78
84354;BMP280;74538;43.522;1.516;2023-12-28T11:04:46;100580.13;;;18.79
84354;BMP280;74538;43.522;1.516;2023-12-28T11:07:15;100569.69;;;18.81
84354;BMP280;74538;43.522;1.516;2023-12-28T11:09:45;100566.59;;;18.83
84354;BMP280;74538;43.522;1.516;2023-12-28T11:12:11;100561.50;;;18.85
84354;BMP280;74538;43.522;1.516;2023-12-28T11:14:39;100567.66;;;18.85
84354;BMP280;74538;43.522;1.516;2023-12-28T11:17:05;100568.09;;;18.84
84354;BMP280;74538;43.522;1.516;2023-12-28T11:19:32;100564.66;;;18.83
84354;BMP280;74538;43.522;1.516;2023-12-28T11:21:58;100575.38;;;18.83
84354;BMP280;74538;43.522;1.516;2023-12-28T11:24:27;100581.94;;;18.82
84354;BMP280;74538;43.522;1.516;2023-12-28T11:26:53;100577.75;;;18.81
84354;BMP280;74538;43.522;1.516;2023-12-28T11:29:22;100573.56;;;18.80
84354;BMP280;74538;43.522;1.516;2023-12-28T11:31:55;100580.13;;;18.79
84354;BMP280;74538;43.522;1.516;2023-12-28T11:34:28;100580.56;;;18.78
84354;BMP280;74538;43.522;1.516;2023-12-28T11:36:56;100579.78;;;18.77
84354;BMP280;74538;43.522;1.516;2023-12-28T11:39:33;100575.56;;;18.76
84354;BMP280;74538;43.522;1.516;2023-12-28T11:42:03;100573.34;;;18.75
84354;BMP280;74538;43.522;1.516;2023-12-28T11:44:29;100574.53;;;18.74
84354;BMP280;74538;43.522;1.516;2023-12-28T11:46:55;100581.06;;;18.73
84354;BMP280;74538;43.522;1.516;2023-12-28T11:49:25;100577.63;;;18.72
84354;BMP280;74538;43.522;1.516;2023-12-28T11:51:58;100578.06;;;18.71
84354;BMP280;74538;43.522;1.516;2023-12-28T11:54:25;100581.16;;;18.69
84354;BMP280;74538;43.522;1.516;2023-12-28T11:56:51;100589.22;;;18.69
84354;BMP280;74538;43.522;1.516;2023-12-28T11:59:17;100590.38;;;18.68
84354;BMP280;74538;43.522;1.516;2023-12-28T12:01:43;100596.19;;;18.67
84354;BMP280;74538;43.522;1.516;2023-12-28T12:04:08;100600.81;;;18.66
84354;BMP280;74538;43.522;1.516;2023-12-28T12:06:34;100597.38;;;18.66
84354;BMP280;74538;43.522;1.516;2023-12-28T12:08:59;100592.00;;;18.66
84354;BMP280;74538;43.522;1.516;2023-12-28T12:11:25;100581.69;;;18.64
84354;BMP280;74538;43.522;1.516;2023-12-28T12:13:53;100573.66;;;18.64
84354;BMP280;74538;43.522;1.516;2023-12-28T12:16:20;100573.66;;;18.64
84354;BMP280;74538;43.522;1.516;2023-12-28T12:18:45;100566.75;;;18.63
84354;BMP280;74538;43.522;1.516;2023-12-28T12:21:12;100559.88;;;18.62
84354;BMP280;74538;43.522;1.516;2023-12-28T12:23:37;100569.13;;;18.61
84354;BMP280;74538;43.522;1.516;2023-12-28T12:26:06;100571.81;;;18.61
84354;BMP280;74538;43.522;1.516;2023-12-28T12:28:32;100572.97;;;18.60
84354;BMP280;74538;43.522;1.516;2023-12-28T12:30:58;100572.97;;;18.60
84354;BMP280;74538;43.522;1.516;2023-12-28T12:33:27;100569.97;;;18.58
84354;BMP280;74538;43.522;1.516;2023-12-28T12:35:52;100568.78;;;18.59
84354;BMP280;74538;43.522;1.516;2023-12-28T12:38:18;100564.59;;;18.58
84354;BMP280;74538;43.522;1.516;2023-12-28T12:40:43;100564.59;;;18.58
84354;BMP280;74538;43.522;1.516;2023-12-28T12:43:09;100552.34;;;18.57
84354;BMP280;74538;43.522;1.516;2023-12-28T12:45:35;100546.97;;;18.57
84354;BMP280;74538;43.522;1.516;2023-12-28T12:48:04;100531.34;;;18.55
84354;BMP280;74538;43.522;1.516;2023-12-28T12:50:33;100534.78;;;18.56
84354;BMP280;74538;43.522;1.516;2023-12-28T12:52:59;100535.94;;;18.55
84354;BMP280;74538;43.522;1.516;2023-12-28T12:55:25;100527.91;;;18.55
84354;BMP280;74538;43.522;1.516;2023-12-28T12:57:51;100527.13;;;18.54
84354;BMP280;74538;43.522;1.516;2023-12-28T13:00:21;100526.38;;;18.54
84354;BMP280;74538;43.522;1.516;2023-12-28T13:02:46;100516.06;;;18.52
84354;BMP280;74538;43.522;1.516;2023-12-28T13:05:12;100520.25;;;18.53
84354;BMP280;74538;43.522;1.516;2023-12-28T13:07:37;100528.75;;;18.52
84354;BMP280;74538;43.522;1.516;2023-12-28T13:10:03;100531.44;;;18.52
84354;BMP280;74538;43.522;1.516;2023-12-28T13:12:29;100519.19;;;18.51
84354;BMP280;74538;43.522;1.516;2023-12-28T13:14:54;100516.50;;;18.51
84354;BMP280;74538;43.522;1.516;2023-12-28T13:17:20;100518.44;;;18.50
84354;BMP280;74538;43.522;1.516;2023-12-28T13:19:45;100515.00;;;18.50
84354;BMP280;74538;43.522;1.516;2023-12-28T13:22:10;100508.13;;;18.49
84354;BMP280;74538;43.522;1.516;2023-12-28T13:24:36;100499.31;;;18.48
84354;BMP280;74538;43.522;1.516;2023-12-28T13:27:01;100499.31;;;18.48
84354;BMP280;74538;43.522;1.516;2023-12-28T13:29:27;100498.56;;;18.48
84354;BMP280;74538;43.522;1.516;2023-12-28T13:31:52;100497.84;;;18.47
84354;BMP280;74538;43.522;1.516;2023-12-28T13:34:18;100504.34;;;18.46
84354;BMP280;74538;43.522;1.516;2023-12-28T13:36:46;100508.97;;;18.46
84354;BMP280;74538;43.522;1.516;2023-12-28T13:39:11;100514.34;;;18.46
84354;BMP280;74538;43.522;1.516;2023-12-28T13:41:40;100512.81;;;18.45
84354;BMP280;74538;43.522;1.516;2023-12-28T13:44:06;100516.69;;;18.44
84354;BMP280;74538;43.522;1.516;2023-12-28T13:46:35;100502.09;;;18.45
84354;BMP280;74538;43.522;1.516;2023-12-28T13:49:01;100507.03;;;18.46
84354;BMP280;74538;43.522;1.516;2023-12-28T13:51:29;100510.47;;;18.47
84354;BMP280;74538;43.522;1.516;2023-12-28T13:53:54;100514.66;;;18.48
84354;BMP280;74538;43.522;1.516;2023-12-28T13:56:20;100524.97;;;18.49
84354;BMP280;74538;43.522;1.516;2023-12-28T13:58:45;100537.97;;;18.51
84354;BMP280;74538;43.522;1.516;2023-12-28T14:01:11;100540.19;;;18.52